createdAt,value
2023-03-20T00:00:31.268Z,73.45
2023-03-20T00:01:53.245Z,73.59
2023-03-20T00:02:56.720Z,73.09
2023-03-20T00:03:59.799Z,73.51
2023-03-20T00:05:02.750Z,73.81
2023-03-20T00:06:06.266Z,73.91
2023-03-20T00:07:13.134Z,73.95
2023-03-20T00:08:16.291Z,73.78
2023-03-20T00:09:19.200Z,73.75
2023-03-20T00:10:25.471Z,73.84
2023-03-20T00:11:33.143Z,73.84
2023-03-20T00:12:36.237Z,73.89
2023-03-20T00:13:39.146Z,73.86
2023-03-20T00:14:42.160Z,73.98
2023-03-20T00:15:45.540Z,73.98
2023-03-20T00:16:50.616Z,73.88
2023-03-20T00:17:54.345Z,73.91
2023-03-20T00:18:57.874Z,73.78
2023-03-20T00:20:00.949Z,73.88
2023-03-20T00:21:03.985Z,73.87
2023-03-20T00:22:06.966Z,74.00
2023-03-20T00:23:10.243Z,73.76
2023-03-20T00:24:14.202Z,73.93
2023-03-20T00:25:20.758Z,74.08
2023-03-20T00:26:33.992Z,74.08
2023-03-20T00:27:37.748Z,74.10
2023-03-20T00:28:46.248Z,74.09
2023-03-20T00:29:49.095Z,74.22
2023-03-20T00:30:52.117Z,74.17
2023-03-20T00:31:55.965Z,74.08
2023-03-20T00:32:59.727Z,74.08
2023-03-20T00:34:07.356Z,74.09
2023-03-20T00:35:37.301Z,74.17
2023-03-20T00:36:41.102Z,74.28
2023-03-20T00:37:44.169Z,74.27
2023-03-20T00:38:47.662Z,74.36
2023-03-20T00:39:50.521Z,74.38
2023-03-20T00:40:53.510Z,74.38
2023-03-20T00:42:00.791Z,74.40
2023-03-20T00:43:04.959Z,74.55
2023-03-20T00:44:42.751Z,74.63
2023-03-20T00:45:46.518Z,74.68
2023-03-20T00:47:02.740Z,74.39
2023-03-20T00:48:06.102Z,74.33
2023-03-20T00:49:11.871Z,74.63
2023-03-20T00:50:17.755Z,74.61
2023-03-20T00:51:20.835Z,74.20
2023-03-20T00:52:24.689Z,74.10
2023-03-20T00:53:27.995Z,74.49
2023-03-20T00:54:31.930Z,74.45
2023-03-20T00:55:36.153Z,74.79
2023-03-20T00:56:45.866Z,74.93
2023-03-20T00:57:50.690Z,75.16
2023-03-20T00:58:54.311Z,75.12
2023-03-20T01:00:06.879Z,75.14
2023-03-20T01:01:09.871Z,75.25
2023-03-20T01:02:13.048Z,75.20
2023-03-20T01:03:24.557Z,75.23
2023-03-20T01:04:35.785Z,75.26
2023-03-20T01:05:39.584Z,75.24
2023-03-20T01:06:43.278Z,75.18
2023-03-20T01:07:46.731Z,75.16
2023-03-20T01:08:49.736Z,75.08
2023-03-20T01:09:52.939Z,75.00
2023-03-20T01:10:58.691Z,75.03
2023-03-20T01:12:03.225Z,75.06
2023-03-20T01:13:17.460Z,75.08
2023-03-20T01:14:20.420Z,75.08
2023-03-20T01:15:27.683Z,75.01
2023-03-20T01:16:30.681Z,74.98
2023-03-20T01:17:33.773Z,74.89
2023-03-20T01:18:37.254Z,74.78
2023-03-20T01:19:40.802Z,74.74
2023-03-20T01:20:43.804Z,74.74
2023-03-20T01:21:46.850Z,74.74
2023-03-20T01:22:50.392Z,74.76
2023-03-20T01:23:53.193Z,74.83
2023-03-20T01:24:56.158Z,74.69
2023-03-20T01:25:59.256Z,74.66
2023-03-20T01:27:04.251Z,74.69
2023-03-20T01:28:19.490Z,74.74
2023-03-20T01:29:25.279Z,74.90
2023-03-20T01:32:00.791Z,75.20
2023-03-20T01:33:13.658Z,75.03
2023-03-20T01:34:17.267Z,75.03
2023-03-20T01:35:22.966Z,74.91
2023-03-20T01:36:26.317Z,74.81
2023-03-20T01:37:29.803Z,74.71
2023-03-20T01:38:36.481Z,74.71
2023-03-20T01:39:39.846Z,74.57
2023-03-20T01:40:51.127Z,74.64
2023-03-20T01:41:54.915Z,74.73
2023-03-20T01:43:00.122Z,74.64
2023-03-20T01:44:19.718Z,74.53
2023-03-20T01:45:30.030Z,74.57
2023-03-20T01:46:38.833Z,74.67
2023-03-20T01:47:49.757Z,74.58
2023-03-20T01:48:53.681Z,74.40
2023-03-20T01:50:26.826Z,74.28
2023-03-20T01:51:36.812Z,74.37
2023-03-20T01:52:45.520Z,74.30
2023-03-20T01:53:53.156Z,74.24
2023-03-20T01:54:56.669Z,74.26
2023-03-20T01:56:01.628Z,74.22
2023-03-20T01:57:18.495Z,74.31
2023-03-20T01:58:31.587Z,74.31
2023-03-20T01:59:44.211Z,74.36
2023-03-20T02:00:49.139Z,74.38
2023-03-20T02:01:52.478Z,74.26
2023-03-20T02:02:56.824Z,74.19
2023-03-20T02:04:26.044Z,74.16
2023-03-20T02:05:34.185Z,73.98
2023-03-20T02:06:40.331Z,73.95
2023-03-20T02:08:10.626Z,74.07
2023-03-20T02:09:13.850Z,74.02
2023-03-20T02:10:19.186Z,73.89
2023-03-20T02:11:41.989Z,73.90
2023-03-20T02:12:47.504Z,73.82
2023-03-20T02:13:57.281Z,73.89
2023-03-20T02:15:02.356Z,73.78
2023-03-20T02:16:31.182Z,74.01
2023-03-20T02:17:43.763Z,73.81
2023-03-20T02:18:50.553Z,73.74
2023-03-20T02:20:12.539Z,73.70
2023-03-20T02:21:36.272Z,73.81
2023-03-20T02:23:06.420Z,73.73
2023-03-20T02:24:48.283Z,73.69
2023-03-20T02:25:57.775Z,73.72
2023-03-20T02:27:33.228Z,73.49
2023-03-20T02:29:01.146Z,73.67
2023-03-20T02:30:41.076Z,73.75
2023-03-20T02:31:58.373Z,73.90
2023-03-20T02:33:23.812Z,73.77
2023-03-20T02:35:09.613Z,73.71
2023-03-20T02:36:42.322Z,73.81
2023-03-20T02:38:06.603Z,73.81
2023-03-20T02:39:25.611Z,73.50
2023-03-20T02:40:54.583Z,73.67
2023-03-20T02:42:08.803Z,73.75
2023-03-20T02:43:26.517Z,73.86
2023-03-20T02:44:44.606Z,74.00
2023-03-20T02:46:14.142Z,74.26
2023-03-20T02:47:26.733Z,74.37
2023-03-20T02:48:33.129Z,74.21
2023-03-20T02:50:05.349Z,74.12
2023-03-20T02:51:18.274Z,74.22
2023-03-20T02:52:33.675Z,74.03
2023-03-20T02:53:54.935Z,74.08
2023-03-20T02:55:21.600Z,74.15
2023-03-20T02:56:51.346Z,74.07
2023-03-20T02:58:00.413Z,74.07
2023-03-20T02:59:12.205Z,73.84
2023-03-20T03:00:35.642Z,73.76
2023-03-20T03:01:44.478Z,73.86
2023-03-20T03:02:59.969Z,73.85
2023-03-20T03:04:12.932Z,73.94
2023-03-20T03:05:24.692Z,73.95
2023-03-20T03:06:32.662Z,73.86
2023-03-20T03:07:39.221Z,73.80
2023-03-20T03:08:50.041Z,73.82
2023-03-20T03:10:00.090Z,73.92
2023-03-20T03:11:08.805Z,73.94
2023-03-20T03:12:18.323Z,74.00
2023-03-20T03:13:27.080Z,73.99
2023-03-20T03:14:37.118Z,73.95
2023-03-20T03:15:48.462Z,73.96
2023-03-20T03:16:52.998Z,73.94
2023-03-20T03:17:58.541Z,73.96
2023-03-20T03:19:09.383Z,74.06
2023-03-20T03:20:26.649Z,74.16
2023-03-20T03:21:33.486Z,74.28
2023-03-20T03:22:36.958Z,74.26
2023-03-20T03:23:47.874Z,74.26
2023-03-20T03:24:53.226Z,74.35
2023-03-20T03:26:01.155Z,74.24
2023-03-20T03:27:17.669Z,74.27
2023-03-20T03:28:37.648Z,74.38
2023-03-20T03:29:42.459Z,74.59
2023-03-20T03:30:46.746Z,74.62
2023-03-20T03:31:49.685Z,74.66
2023-03-20T03:33:29.960Z,74.63
2023-03-20T03:34:35.052Z,74.57
2023-03-20T03:35:39.212Z,74.70
2023-03-20T03:36:54.556Z,74.84
2023-03-20T03:37:57.599Z,75.07
2023-03-20T03:39:19.526Z,75.04
2023-03-20T03:40:44.785Z,75.08
2023-03-20T03:41:54.037Z,75.19
2023-03-20T03:43:21.389Z,75.36
2023-03-20T03:44:48.657Z,75.74
2023-03-20T03:46:06.301Z,76.08
2023-03-20T03:47:21.599Z,75.96
2023-03-20T03:48:32.908Z,76.16
2023-03-20T03:49:44.088Z,76.11
2023-03-20T03:51:11.111Z,76.07
2023-03-20T03:52:23.627Z,76.40
2023-03-20T03:53:34.752Z,76.12
2023-03-20T03:54:53.447Z,76.20
2023-03-20T03:56:12.757Z,76.47
2023-03-20T03:57:20.594Z,76.18
2023-03-20T03:58:33.242Z,76.32
2023-03-20T03:59:40.435Z,76.31
2023-03-20T04:00:48.043Z,76.38
2023-03-20T04:01:52.531Z,76.50
2023-03-20T04:02:58.300Z,76.45
2023-03-20T04:04:06.285Z,76.63
2023-03-20T04:05:10.417Z,76.67
2023-03-20T04:06:15.957Z,76.58
2023-03-20T04:07:19.393Z,76.71
2023-03-20T04:08:22.427Z,76.67
2023-03-20T04:09:25.426Z,76.70
2023-03-20T04:10:28.602Z,76.67
2023-03-20T04:11:31.799Z,76.70
2023-03-20T04:12:40.675Z,76.70
2023-03-20T04:13:49.002Z,76.83
2023-03-20T04:14:51.982Z,76.79
2023-03-20T04:15:57.964Z,76.80
2023-03-20T04:17:02.910Z,76.77
2023-03-20T04:18:14.708Z,76.80
2023-03-20T04:19:17.779Z,76.81
2023-03-20T04:20:22.823Z,76.81
2023-03-20T04:21:25.882Z,76.73
2023-03-20T04:22:28.932Z,76.79
2023-03-20T04:23:35.710Z,76.86
2023-03-20T04:24:38.962Z,76.83
2023-03-20T04:25:42.205Z,76.84
2023-03-20T04:26:46.900Z,77.16
2023-03-20T04:27:50.425Z,77.32
2023-03-20T04:29:11.136Z,77.49
2023-03-20T04:30:34.315Z,77.40
2023-03-20T04:32:09.896Z,77.34
2023-03-20T04:33:32.821Z,77.29
2023-03-20T04:34:56.482Z,77.21
2023-03-20T04:36:14.035Z,77.04
2023-03-20T04:37:17.091Z,76.74
2023-03-20T04:38:34.752Z,76.70
2023-03-20T04:39:38.075Z,76.50
2023-03-20T04:40:41.279Z,76.44
2023-03-20T04:41:44.636Z,76.41
2023-03-20T04:42:47.634Z,76.40
2023-03-20T04:43:50.659Z,76.22
2023-03-20T04:44:53.810Z,76.20
2023-03-20T04:45:58.725Z,75.86
2023-03-20T04:47:02.017Z,75.70
2023-03-20T04:48:07.137Z,75.56
2023-03-20T04:49:10.615Z,75.48
2023-03-20T04:50:14.302Z,75.38
2023-03-20T04:51:17.180Z,75.36
2023-03-20T04:52:24.677Z,75.43
2023-03-20T04:53:28.058Z,75.44
2023-03-20T04:54:31.728Z,75.43
2023-03-20T04:55:34.877Z,75.36
2023-03-20T04:56:38.026Z,75.35
2023-03-20T04:57:59.414Z,75.42
2023-03-20T04:59:03.322Z,75.45
2023-03-20T05:00:06.815Z,75.37
2023-03-20T05:01:09.837Z,75.35
2023-03-20T05:02:15.053Z,75.23
2023-03-20T05:03:17.964Z,75.16
2023-03-20T05:04:21.523Z,75.10
2023-03-20T05:05:25.198Z,75.00
2023-03-20T05:06:29.012Z,74.88
2023-03-20T05:07:32.845Z,74.81
2023-03-20T05:08:38.569Z,74.83
2023-03-20T05:09:42.191Z,74.86
2023-03-20T05:10:45.548Z,74.92
2023-03-20T05:12:11.443Z,75.07
2023-03-20T05:13:14.250Z,75.09
2023-03-20T05:14:40.325Z,75.20
2023-03-20T05:16:09.600Z,75.19
2023-03-20T05:17:18.473Z,75.03
2023-03-20T05:18:47.614Z,75.23
2023-03-20T05:20:07.770Z,75.41
2023-03-20T05:21:22.285Z,75.08
2023-03-20T05:22:48.995Z,74.96
2023-03-20T05:24:10.699Z,75.01
2023-03-20T05:25:26.664Z,75.07
2023-03-20T05:26:55.497Z,74.90
2023-03-20T05:28:21.282Z,74.70
2023-03-20T05:29:50.294Z,75.04
2023-03-20T05:31:09.048Z,74.78
2023-03-20T05:32:28.217Z,74.80
2023-03-20T05:33:43.589Z,74.82
2023-03-20T05:34:54.916Z,74.98
2023-03-20T05:36:10.072Z,75.02
2023-03-20T05:37:27.211Z,74.76
2023-03-20T05:38:43.499Z,74.79
2023-03-20T05:40:03.294Z,74.85
2023-03-20T05:41:26.022Z,74.88
2023-03-20T05:42:57.851Z,74.92
2023-03-20T05:44:26.975Z,75.16
2023-03-20T05:45:59.011Z,75.26
2023-03-20T05:47:34.583Z,75.32
2023-03-20T05:49:13.229Z,75.48
2023-03-20T05:50:28.647Z,75.11
2023-03-20T05:51:57.952Z,75.19
2023-03-20T05:53:18.637Z,75.22
2023-03-20T05:54:30.727Z,75.08
2023-03-20T05:55:41.565Z,75.01
2023-03-20T05:57:07.191Z,75.05
2023-03-20T05:58:28.273Z,74.92
2023-03-20T05:59:38.773Z,74.85
2023-03-20T06:01:16.542Z,75.26
2023-03-20T06:02:38.410Z,75.04
2023-03-20T06:03:49.068Z,74.76
2023-03-20T06:04:53.335Z,74.58
2023-03-20T06:06:01.466Z,74.45
2023-03-20T06:07:06.398Z,74.37
2023-03-20T06:08:09.504Z,74.33
2023-03-20T06:09:12.335Z,74.30
2023-03-20T06:10:16.210Z,74.34
2023-03-20T06:11:19.333Z,74.35
2023-03-20T06:12:22.783Z,74.35
2023-03-20T06:13:26.191Z,74.22
2023-03-20T06:14:29.166Z,74.06
2023-03-20T06:15:35.863Z,73.94
2023-03-20T06:16:47.058Z,73.94
2023-03-20T06:17:50.865Z,73.82
2023-03-20T06:18:53.913Z,73.73
2023-03-20T06:19:58.512Z,73.69
2023-03-20T06:21:02.554Z,73.61
2023-03-20T06:22:05.890Z,73.49
2023-03-20T06:23:09.455Z,73.49
2023-03-20T06:24:12.538Z,73.46
2023-03-20T06:25:16.391Z,73.45
2023-03-20T06:26:20.431Z,73.39
2023-03-20T06:27:31.856Z,73.41
2023-03-20T06:28:35.425Z,73.23
2023-03-20T06:29:41.794Z,73.13
2023-03-20T06:30:53.480Z,73.10
2023-03-20T06:31:58.171Z,73.04
2023-03-20T06:33:07.020Z,72.92
2023-03-20T06:34:15.110Z,72.77
2023-03-20T06:35:21.215Z,72.74
2023-03-20T06:36:25.521Z,72.70
2023-03-20T06:37:32.384Z,72.65
2023-03-20T06:38:42.260Z,72.64
2023-03-20T06:39:48.724Z,72.77
2023-03-20T06:40:51.804Z,72.76
2023-03-20T06:41:55.105Z,72.75
2023-03-20T06:42:59.746Z,72.76
2023-03-20T06:44:10.754Z,72.77
2023-03-20T06:45:40.244Z,73.09
2023-03-20T06:46:53.551Z,73.03
2023-03-20T06:47:56.449Z,72.97
2023-03-20T06:48:59.460Z,72.94
2023-03-20T06:50:02.485Z,72.95
2023-03-20T06:51:08.172Z,72.87
2023-03-20T06:52:21.614Z,72.84
2023-03-20T06:53:32.947Z,72.95
2023-03-20T06:54:45.030Z,72.96
2023-03-20T06:55:51.701Z,73.02
2023-03-20T06:56:54.729Z,72.93
2023-03-20T06:57:58.147Z,72.91
2023-03-20T06:59:01.308Z,72.70
2023-03-20T07:00:06.343Z,72.48
2023-03-20T07:01:17.312Z,72.45
2023-03-20T07:02:20.948Z,72.46
2023-03-20T07:03:23.859Z,72.31
2023-03-20T07:04:27.734Z,72.23
2023-03-20T07:05:34.197Z,72.20
2023-03-20T07:06:38.894Z,72.20
2023-03-20T07:07:42.327Z,72.00
2023-03-20T07:08:45.527Z,71.83
2023-03-20T07:09:48.715Z,71.67
2023-03-20T07:10:51.797Z,71.50
2023-03-20T07:11:55.008Z,71.49
2023-03-20T07:12:58.995Z,71.46
2023-03-20T07:14:02.398Z,71.11
2023-03-20T07:15:23.272Z,71.06
2023-03-20T07:16:26.439Z,71.14
2023-03-20T07:17:29.930Z,71.22
2023-03-20T07:18:33.575Z,71.30
2023-03-20T07:19:38.233Z,71.14
2023-03-20T07:20:41.642Z,70.93
2023-03-20T07:21:45.039Z,70.83
2023-03-20T07:22:48.798Z,70.79
2023-03-20T07:23:54.620Z,70.63
2023-03-20T07:24:58.113Z,70.58
2023-03-20T07:26:01.598Z,70.43
2023-03-20T07:27:04.844Z,70.28
2023-03-20T07:28:08.972Z,70.28
2023-03-20T07:29:14.009Z,70.24
2023-03-20T07:30:19.290Z,70.35
2023-03-20T07:31:25.918Z,70.44
2023-03-20T07:32:58.575Z,70.54
2023-03-20T07:34:04.669Z,70.64
2023-03-20T07:35:10.208Z,70.70
2023-03-20T07:36:16.647Z,70.80
2023-03-20T07:37:20.269Z,70.77
2023-03-20T07:38:33.621Z,70.62
2023-03-20T07:39:43.356Z,70.53
2023-03-20T07:41:06.819Z,70.30
2023-03-20T07:42:11.348Z,69.84
2023-03-20T07:43:20.782Z,69.57
2023-03-20T07:44:35.953Z,69.40
2023-03-20T07:45:44.406Z,69.00
2023-03-20T07:46:47.927Z,68.70
2023-03-20T07:47:51.459Z,68.34
2023-03-20T07:48:54.333Z,68.59
2023-03-20T07:49:57.172Z,68.17
2023-03-20T07:50:59.943Z,67.93
2023-03-20T07:52:03.269Z,67.90
2023-03-20T07:53:06.251Z,67.96
2023-03-20T07:54:09.108Z,67.78
2023-03-20T07:55:13.150Z,67.75
2023-03-20T07:56:16.043Z,67.64
2023-03-20T07:57:18.954Z,67.22
2023-03-20T07:58:22.590Z,67.37
2023-03-20T07:59:25.442Z,67.20
2023-03-20T08:00:28.531Z,67.47
2023-03-20T08:01:31.395Z,67.48
2023-03-20T08:02:34.822Z,67.52
2023-03-20T08:03:39.654Z,67.49
2023-03-20T08:04:43.509Z,67.49
2023-03-20T08:05:47.534Z,67.59
2023-03-20T08:06:51.773Z,67.60
2023-03-20T08:07:55.027Z,67.44
2023-03-20T08:08:57.966Z,67.38
2023-03-20T08:10:00.938Z,67.46
2023-03-20T08:11:04.046Z,67.48
2023-03-20T08:12:07.360Z,67.39
2023-03-20T08:13:10.513Z,67.37
2023-03-20T08:14:13.429Z,67.42
2023-03-20T08:15:16.770Z,67.37
2023-03-20T08:16:26.830Z,67.43
2023-03-20T08:17:29.686Z,67.44
2023-03-20T08:18:33.215Z,67.46
2023-03-20T08:19:36.462Z,67.52
2023-03-20T08:20:39.306Z,67.43
2023-03-20T08:21:42.197Z,67.46
2023-03-20T08:22:45.742Z,67.51
2023-03-20T08:23:48.799Z,67.49
2023-03-20T08:24:51.593Z,67.37
2023-03-20T08:25:54.410Z,67.27
2023-03-20T08:26:57.608Z,67.27
2023-03-20T08:28:01.791Z,67.21
2023-03-20T08:29:04.847Z,67.30
2023-03-20T08:30:09.581Z,67.39
2023-03-20T08:31:12.649Z,67.34
2023-03-20T08:32:15.604Z,67.25
2023-03-20T08:33:19.071Z,67.11
2023-03-20T08:34:24.051Z,67.10
2023-03-20T08:35:33.351Z,67.20
2023-03-20T08:36:48.248Z,67.18
2023-03-20T08:37:51.052Z,67.17
2023-03-20T08:38:53.879Z,67.13
2023-03-20T08:39:56.975Z,67.05
2023-03-20T08:40:59.817Z,67.08
2023-03-20T08:42:02.668Z,67.06
2023-03-20T08:43:05.669Z,66.82
2023-03-20T08:44:08.537Z,66.81
2023-03-20T08:45:11.962Z,66.81
2023-03-20T08:46:15.021Z,66.89
2023-03-20T08:47:17.849Z,66.99
2023-03-20T08:48:21.207Z,66.95
2023-03-20T08:49:24.454Z,66.67
2023-03-20T08:50:27.687Z,66.50
2023-03-20T08:51:30.928Z,66.48
2023-03-20T08:52:33.815Z,66.45
2023-03-20T08:53:37.158Z,66.37
2023-03-20T08:54:39.960Z,66.27
2023-03-20T08:55:49.141Z,66.15
2023-03-20T08:56:52.063Z,66.21
2023-03-20T08:57:57.360Z,66.14
2023-03-20T08:59:00.162Z,66.04
2023-03-20T09:00:04.411Z,65.98
2023-03-20T09:01:09.380Z,66.05
2023-03-20T09:02:12.808Z,66.19
2023-03-20T09:03:18.973Z,66.22
2023-03-20T09:04:21.848Z,66.08
2023-03-20T09:05:24.649Z,66.04
2023-03-20T09:06:27.479Z,65.85
2023-03-20T09:07:30.298Z,65.76
2023-03-20T09:08:33.170Z,65.66
2023-03-20T09:09:36.299Z,65.55
2023-03-20T09:10:40.736Z,65.44
2023-03-20T09:11:43.662Z,65.15
2023-03-20T09:12:46.875Z,64.81
2023-03-20T09:13:49.909Z,64.68
2023-03-20T09:14:52.847Z,64.88
2023-03-20T09:15:56.943Z,64.35
2023-03-20T09:16:59.965Z,64.06
2023-03-20T09:18:04.003Z,63.98
2023-03-20T09:19:07.070Z,64.04
2023-03-20T09:20:10.778Z,63.69
2023-03-20T09:21:13.640Z,64.02
2023-03-20T09:22:19.640Z,64.00
2023-03-20T09:23:22.913Z,63.78
2023-03-20T09:24:25.847Z,63.92
2023-03-20T09:25:28.862Z,63.58
2023-03-20T09:26:31.645Z,63.09
2023-03-20T09:27:34.487Z,63.14
2023-03-20T09:28:37.324Z,62.98
2023-03-20T09:29:41.491Z,61.88
2023-03-20T09:30:45.409Z,62.13
2023-03-20T09:31:48.239Z,61.91
2023-03-20T09:32:51.626Z,62.15
2023-03-20T09:33:54.468Z,62.17
2023-03-20T09:34:57.282Z,62.10
2023-03-20T09:36:00.720Z,61.70
2023-03-20T09:37:04.236Z,61.39
2023-03-20T09:38:07.446Z,61.13
2023-03-20T09:39:10.361Z,60.37
2023-03-20T09:40:27.847Z,60.43
2023-03-20T09:41:49.184Z,60.39
2023-03-20T09:43:02.834Z,60.11
2023-03-20T09:44:17.655Z,59.42
2023-03-20T09:45:30.875Z,59.49
2023-03-20T09:46:39.459Z,60.55
2023-03-20T09:48:04.165Z,60.93
2023-03-20T09:49:17.679Z,61.41
2023-03-20T09:50:36.381Z,60.58
2023-03-20T09:51:49.447Z,61.49
2023-03-20T09:53:07.351Z,61.11
2023-03-20T09:54:20.946Z,61.43
2023-03-20T09:55:31.918Z,61.48
2023-03-20T09:56:35.409Z,61.66
2023-03-20T09:57:42.719Z,62.23
2023-03-20T09:58:53.499Z,62.40
2023-03-20T10:00:01.569Z,62.26
2023-03-20T10:01:06.894Z,62.55
2023-03-20T10:02:24.556Z,62.35
2023-03-20T10:03:56.958Z,62.15
2023-03-20T10:04:59.777Z,61.61
2023-03-20T10:06:12.068Z,61.11
2023-03-20T10:07:17.266Z,61.33
2023-03-20T10:08:24.754Z,60.80
2023-03-20T10:09:31.856Z,60.57
2023-03-20T10:10:42.296Z,60.60
2023-03-20T10:12:04.094Z,60.05
2023-03-20T10:13:45.738Z,59.95
2023-03-20T10:15:08.286Z,60.30
2023-03-20T10:16:55.693Z,60.07
2023-03-20T10:18:17.461Z,60.19
2023-03-20T10:19:28.050Z,59.88
2023-03-20T10:20:45.654Z,59.55
2023-03-20T10:21:56.279Z,59.39
2023-03-20T10:23:06.127Z,59.33
2023-03-20T10:24:22.683Z,60.24
2023-03-20T10:25:42.317Z,60.34
2023-03-20T10:26:50.073Z,60.48
2023-03-20T10:28:00.376Z,61.27
2023-03-20T10:29:20.382Z,60.99
2023-03-20T10:30:35.975Z,61.01
2023-03-20T10:31:58.729Z,61.35
2023-03-20T10:33:19.096Z,61.27
2023-03-20T10:34:49.923Z,61.78
2023-03-20T10:36:21.637Z,62.37
2023-03-20T10:37:50.029Z,62.48
2023-03-20T10:39:03.133Z,62.73
2023-03-20T10:40:27.573Z,62.07
2023-03-20T10:41:36.343Z,61.58
2023-03-20T10:42:44.824Z,61.17
2023-03-20T10:43:51.453Z,60.65
2023-03-20T10:45:47.231Z,60.29
2023-03-20T10:46:53.738Z,60.60
2023-03-20T10:48:00.733Z,59.90
2023-03-20T10:49:14.240Z,59.10
2023-03-20T10:50:25.724Z,58.81
2023-03-20T10:51:46.424Z,58.70
2023-03-20T10:52:54.006Z,59.00
2023-03-20T10:54:02.504Z,59.79
2023-03-20T10:55:12.492Z,59.92
2023-03-20T10:56:27.504Z,60.31
2023-03-20T10:57:34.618Z,60.38
2023-03-20T10:58:40.972Z,60.78
2023-03-20T10:59:56.674Z,60.52
2023-03-20T11:01:00.586Z,60.65
2023-03-20T11:02:11.507Z,61.14
2023-03-20T11:03:23.499Z,60.73
2023-03-20T11:04:26.450Z,61.44
2023-03-20T11:05:32.893Z,61.53
2023-03-20T11:06:47.282Z,61.65
2023-03-20T11:08:07.560Z,62.24
2023-03-20T11:09:17.798Z,62.46
2023-03-20T11:10:20.683Z,62.73
2023-03-20T11:11:26.687Z,63.16
2023-03-20T11:12:33.720Z,63.08
2023-03-20T11:13:44.821Z,62.75
2023-03-20T11:14:47.643Z,62.86
2023-03-20T11:15:53.050Z,62.67
2023-03-20T11:17:02.019Z,62.18
2023-03-20T11:18:07.823Z,62.02
2023-03-20T11:19:11.883Z,61.73
2023-03-20T11:20:14.837Z,61.51
2023-03-20T11:21:24.906Z,61.23
2023-03-20T11:22:28.819Z,60.94
2023-03-20T11:23:35.837Z,60.75
2023-03-20T11:24:47.319Z,60.64
2023-03-20T11:26:12.147Z,60.75
2023-03-20T11:27:24.594Z,60.89
2023-03-20T11:28:36.138Z,60.74
2023-03-20T11:29:43.181Z,60.97
2023-03-20T11:31:04.015Z,60.67
2023-03-20T11:32:34.097Z,60.56
2023-03-20T11:33:45.403Z,60.68
2023-03-20T11:34:48.452Z,60.70
2023-03-20T11:35:55.292Z,60.23
2023-03-20T11:37:10.074Z,60.16
2023-03-20T11:38:17.833Z,60.36
2023-03-20T11:39:27.316Z,60.16
2023-03-20T11:40:32.514Z,60.27
2023-03-20T11:41:42.826Z,60.11
2023-03-20T11:43:00.888Z,59.83
2023-03-20T11:44:04.041Z,59.75
2023-03-20T11:45:16.857Z,59.72
2023-03-20T11:46:23.211Z,59.81
2023-03-20T11:47:28.382Z,59.63
2023-03-20T11:48:40.753Z,59.76
2023-03-20T11:49:50.337Z,59.68
2023-03-20T11:51:07.348Z,59.77
2023-03-20T11:52:15.953Z,59.94
2023-03-20T11:53:33.904Z,60.05
2023-03-20T11:54:38.650Z,60.21
2023-03-20T11:55:42.774Z,60.09
2023-03-20T11:56:56.373Z,60.26
2023-03-20T11:58:01.093Z,60.23
2023-03-20T11:59:14.758Z,60.04
2023-03-20T12:00:24.270Z,59.96
2023-03-20T12:01:28.991Z,59.42
2023-03-20T12:02:32.466Z,59.26
2023-03-20T12:04:27.372Z,59.24
2023-03-20T12:05:39.796Z,60.19
2023-03-20T12:06:50.597Z,60.84
2023-03-20T12:07:58.169Z,61.60
2023-03-20T12:09:12.026Z,62.00
2023-03-20T12:10:15.615Z,62.47
2023-03-20T12:11:46.733Z,63.15
2023-03-20T12:12:49.531Z,63.61
2023-03-20T12:13:57.478Z,63.52
2023-03-20T12:15:18.639Z,63.74
2023-03-20T12:16:25.178Z,63.21
2023-03-20T12:17:56.990Z,63.45
2023-03-20T12:19:03.082Z,63.42
2023-03-20T12:20:15.150Z,63.38
2023-03-20T12:21:27.138Z,64.06
2023-03-20T12:22:49.613Z,63.58
2023-03-20T12:24:04.564Z,63.10
2023-03-20T12:25:20.188Z,62.07
2023-03-20T12:26:34.503Z,59.72
2023-03-20T12:27:46.134Z,58.86
2023-03-20T12:29:03.000Z,59.13
2023-03-20T12:30:20.973Z,59.38
2023-03-20T12:31:26.311Z,59.48
2023-03-20T12:32:52.246Z,60.48
2023-03-20T12:34:01.579Z,60.96
2023-03-20T12:35:17.192Z,60.74
2023-03-20T12:36:36.058Z,60.90
2023-03-20T12:37:39.008Z,58.60
2023-03-20T12:38:43.433Z,57.50
2023-03-20T12:39:54.829Z,57.79
2023-03-20T12:41:19.865Z,57.42
2023-03-20T12:42:54.755Z,57.95
2023-03-20T12:44:19.851Z,58.52
2023-03-20T12:46:05.956Z,58.89
2023-03-20T12:47:40.000Z,58.53
2023-03-20T12:49:11.474Z,58.56
2023-03-20T12:50:39.487Z,57.91
2023-03-20T12:52:01.479Z,57.80
2023-03-20T12:53:16.333Z,57.94
2023-03-20T12:54:57.172Z,57.09
2023-03-20T12:56:32.524Z,58.06
2023-03-20T12:57:41.390Z,58.15
2023-03-20T12:58:52.236Z,58.22
2023-03-20T12:59:55.135Z,58.84
2023-03-20T13:01:04.160Z,59.24
2023-03-20T13:02:33.824Z,58.99
2023-03-20T13:03:58.543Z,58.80
2023-03-20T13:05:22.455Z,58.35
2023-03-20T13:06:40.686Z,58.20
2023-03-20T13:08:00.084Z,56.76
2023-03-20T13:09:44.681Z,57.30
2023-03-20T13:11:29.531Z,57.20
2023-03-20T13:13:01.959Z,57.13
2023-03-20T13:14:31.758Z,56.57
2023-03-20T13:15:49.893Z,56.67
2023-03-20T13:17:13.714Z,56.57
2023-03-20T13:18:37.341Z,57.09
2023-03-20T13:20:12.028Z,56.63
2023-03-20T13:21:38.291Z,56.97
2023-03-20T13:23:18.154Z,57.35
2023-03-20T13:25:02.931Z,58.16
2023-03-20T13:26:18.200Z,58.64
2023-03-20T13:27:23.814Z,59.41
2023-03-20T13:28:42.083Z,59.65
2023-03-20T13:30:07.484Z,60.20
2023-03-20T13:31:27.840Z,60.40
2023-03-20T13:32:42.033Z,60.70
2023-03-20T13:33:56.640Z,61.11
2023-03-20T13:35:10.375Z,61.28
2023-03-20T13:36:30.316Z,61.61
2023-03-20T13:37:44.894Z,62.32
2023-03-20T13:39:25.833Z,62.81
2023-03-20T13:40:34.162Z,63.23
2023-03-20T13:41:39.190Z,63.18
2023-03-20T13:42:51.097Z,62.69
2023-03-20T13:44:01.132Z,62.78
2023-03-20T13:45:31.778Z,63.80
2023-03-20T13:48:28.619Z,63.90
2023-03-20T13:50:05.153Z,62.78
2023-03-20T13:51:13.506Z,62.82
2023-03-20T13:52:28.892Z,62.69
2023-03-20T13:53:43.883Z,63.38
2023-03-20T13:55:01.325Z,62.52
2023-03-20T13:56:22.393Z,62.92
2023-03-20T13:57:44.767Z,62.72
2023-03-20T13:59:23.407Z,63.45
2023-03-20T14:00:28.582Z,63.79
2023-03-20T14:02:22.392Z,63.19
2023-03-20T14:03:29.475Z,63.72
2023-03-20T14:04:34.085Z,63.23
2023-03-20T14:05:39.998Z,63.33
2023-03-20T14:06:58.301Z,63.39
2023-03-20T14:08:21.839Z,63.81
2023-03-20T14:09:36.599Z,63.35
2023-03-20T14:10:40.714Z,63.76
2023-03-20T14:11:44.380Z,64.21
2023-03-20T14:12:59.868Z,64.38
2023-03-20T14:14:19.976Z,64.22
2023-03-20T14:15:28.029Z,63.90
2023-03-20T14:16:31.371Z,64.00
2023-03-20T14:17:34.450Z,64.42
2023-03-20T14:18:38.300Z,64.46
2023-03-20T14:19:41.587Z,64.65
2023-03-20T14:21:01.359Z,65.02
2023-03-20T14:22:07.034Z,64.82
2023-03-20T14:23:30.051Z,65.43
2023-03-20T14:24:37.912Z,64.69
2023-03-20T14:25:46.475Z,64.73
2023-03-20T14:27:02.029Z,65.24
2023-03-20T14:28:11.014Z,65.24
2023-03-20T14:29:13.814Z,65.34
2023-03-20T14:30:32.068Z,65.57
2023-03-20T14:31:38.516Z,65.47
2023-03-20T14:32:58.040Z,65.14
2023-03-20T14:34:12.383Z,65.58
2023-03-20T14:35:17.966Z,65.98
2023-03-20T14:36:27.523Z,65.50
2023-03-20T14:37:33.639Z,65.78
2023-03-20T14:38:45.180Z,66.33
2023-03-20T14:39:56.965Z,65.82
2023-03-20T14:41:15.878Z,65.85
2023-03-20T14:42:50.179Z,66.81
2023-03-20T14:43:58.537Z,66.36
2023-03-20T14:45:13.772Z,66.87
2023-03-20T14:46:31.837Z,66.85
2023-03-20T14:48:01.985Z,66.93
2023-03-20T14:49:22.958Z,67.51
2023-03-20T14:50:39.834Z,66.28
2023-03-20T14:51:48.063Z,67.19
2023-03-20T14:53:06.939Z,67.23
2023-03-20T14:54:22.311Z,67.10
2023-03-20T14:55:25.386Z,66.41
2023-03-20T14:56:33.970Z,67.24
2023-03-20T14:57:54.776Z,67.40
2023-03-20T14:59:03.330Z,67.13
2023-03-20T15:00:18.159Z,67.26
2023-03-20T15:01:21.973Z,66.89
2023-03-20T15:02:28.839Z,66.86
2023-03-20T15:03:32.962Z,67.14
2023-03-20T15:04:42.139Z,66.88
2023-03-20T15:05:46.106Z,67.32
2023-03-20T15:06:54.899Z,67.08
2023-03-20T15:08:04.942Z,67.18
2023-03-20T15:09:10.702Z,66.99
2023-03-20T15:10:13.659Z,66.77
2023-03-20T15:11:17.162Z,66.81
2023-03-20T15:12:24.986Z,66.74
2023-03-20T15:13:28.962Z,66.85
2023-03-20T15:14:41.986Z,66.80
2023-03-20T15:15:54.337Z,66.90
2023-03-20T15:17:00.352Z,66.53